Time;durP1;ratioP1;P1;durP2;ratioP2;P2;SDS_P1;SDS_P2;PMS_P1;PMS_P2;Temp;Humidity;BMP_temperature;BMP_pressure;BME280_temperature;BME280_humidity;BME280_pressure;Samples;Min_cycle;Max_cycle;Signal;HPM_P1;HPM_P2
2021/11/20 00:00:03;;;;;;;;;;;20.90;55.90;;;;;;3144810;28;19969;-58
2021/11/20 00:01:36;;;;;;;;;;;20.90;55.90;;;;;;3145189;28;19928;-59
2021/11/20 00:03:07;;;;;;;;;;;20.90;55.90;;;;;;3146032;28;20408;-58
2021/11/20 00:04:40;;;;;;;;;;;20.90;55.90;;;;;;3145156;28;19925;-59
2021/11/20 00:06:12;;;;;;;;;;;20.90;55.80;;;;;;3145833;28;20369;-60
2021/11/20 00:07:45;;;;;;;;;;;20.90;55.80;;;;;;3146127;28;19928;-57
2021/11/20 00:09:18;;;;;;;;;;;20.90;55.80;;;;;;3149515;28;19966;-58
2021/11/20 00:10:51;;;;;;;;;;;20.90;55.80;;;;;;3147273;28;20381;-59
2021/11/20 00:12:23;;;;;;;;;;;20.90;55.80;;;;;;3145727;28;19932;-58
2021/11/20 00:13:55;;;;;;;;;;;20.90;55.70;;;;;;3144660;28;19925;-60
2021/11/20 00:15:28;;;;;;;;;;;20.90;55.70;;;;;;3143583;28;19925;-60
2021/11/20 00:17:01;;;;;;;;;;;20.90;55.90;;;;;;3145571;28;20301;-59
2021/11/20 00:18:33;;;;;;;;;;;20.90;55.70;;;;;;3137649;28;19972;-59
2021/11/20 00:20:05;;;;;;;;;;;20.90;55.70;;;;;;3144881;28;20015;-59
2021/11/20 00:21:37;;;;;;;;;;;20.90;55.80;;;;;;3145997;28;19931;-59
2021/11/20 00:23:10;;;;;;;;;;;20.80;55.70;;;;;;3145651;28;19925;-57
2021/11/20 00:24:42;;;;;;;;;;;20.80;55.80;;;;;;3144815;28;19928;-58
2021/11/20 00:26:14;;;;;;;;;;;20.80;55.70;;;;;;3146008;28;19924;-58
2021/11/20 00:27:46;;;;;;;;;;;20.80;55.80;;;;;;3146088;28;19929;-57
2021/11/20 00:29:26;;;;;;;;;;;20.80;55.80;;;;;;3150213;28;19924;-57
2021/11/20 00:30:59;;;;;;;;;;;20.80;55.90;;;;;;3145411;28;19924;-59
2021/11/20 00:32:32;;;;;;;;;;;20.80;55.80;;;;;;3145926;28;20014;-59
2021/11/20 00:34:04;;;;;;;;;;;20.80;55.90;;;;;;3145038;28;19924;-58
2021/11/20 00:35:36;;;;;;;;;;;20.80;55.80;;;;;;3145493;28;19925;-59
2021/11/20 00:37:08;;;;;;;;;;;20.80;55.90;;;;;;3145779;28;19947;-58
2021/11/20 00:38:41;;;;;;;;;;;20.70;55.80;;;;;;3145494;28;19951;-61
2021/11/20 00:40:14;;;;;;;;;;;20.70;55.90;;;;;;3138123;28;20557;-58
2021/11/20 00:41:46;;;;;;;;;;;20.70;55.90;;;;;;3145916;28;19925;-60
2021/11/20 00:43:18;;;;;;;;;;;20.70;56.00;;;;;;3145400;28;19924;-58
2021/11/20 00:44:49;;;;;;;;;;;20.70;56.00;;;;;;3144843;28;20305;-59
2021/11/20 00:46:22;;;;;;;;;;;20.70;55.90;;;;;;3145015;28;19924;-58
2021/11/20 00:47:54;;;;;;;;;;;20.70;56.00;;;;;;3145687;28;19925;-57
2021/11/20 00:49:25;;;;;;;;;;;20.70;55.90;;;;;;3145251;28;19932;-59
2021/11/20 00:51:04;;;;;;;;;;;20.60;55.90;;;;;;3145946;28;20365;-59
2021/11/20 00:52:35;;;;;;;;;;;20.70;55.80;;;;;;3145628;28;20354;-59
2021/11/20 00:54:08;;;;;;;;;;;20.70;55.70;;;;;;3144601;28;19935;-59
2021/11/20 00:55:40;;;;;;;;;;;20.70;55.80;;;;;;3145417;28;19974;-59
2021/11/20 00:57:12;;;;;;;;;;;20.70;55.90;;;;;;3146016;28;19928;-59
2021/11/20 00:58:43;;;;;;;;;;;20.60;55.90;;;;;;3145159;28;19925;-56
2021/11/20 01:00:15;;;;;;;;;;;20.60;56.00;;;;;;3143956;28;19978;-59
2021/11/20 01:01:48;;;;;;;;;;;20.60;55.90;;;;;;3145461;28;19924;-60
2021/11/20 01:03:19;;;;;;;;;;;20.60;55.90;;;;;;3151816;28;19924;-59
2021/11/20 01:04:51;;;;;;;;;;;20.60;55.90;;;;;;3145995;28;19950;-60
2021/11/20 01:06:22;;;;;;;;;;;20.70;55.80;;;;;;3145649;28;19924;-58
2021/11/20 01:07:53;;;;;;;;;;;20.70;55.80;;;;;;3145322;28;19999;-60
2021/11/20 01:09:27;;;;;;;;;;;20.70;55.80;;;;;;3144907;28;20296;-60
2021/11/20 01:10:59;;;;;;;;;;;20.60;55.80;;;;;;3145536;28;19978;-60
2021/11/20 01:12:31;;;;;;;;;;;20.70;55.70;;;;;;3145712;28;19932;-59
2021/11/20 01:14:03;;;;;;;;;;;20.70;55.50;;;;;;3144373;28;19925;-58
2021/11/20 01:15:36;;;;;;;;;;;20.80;56.20;;;;;;3144137;28;19998;-59
2021/11/20 01:17:08;;;;;;;;;;;20.70;55.50;;;;;;3227016;22;20606;-58
2021/11/20 01:18:38;;;;;;;;;;;20.70;55.70;;;;;;3158736;28;20477;-59
2021/11/20 01:20:10;;;;;;;;;;;20.70;55.70;;;;;;3157124;28;19920;-57
2021/11/20 01:21:42;;;;;;;;;;;20.70;55.70;;;;;;3162750;28;19969;-59
2021/11/20 01:23:13;;;;;;;;;;;20.80;55.60;;;;;;3165148;28;20360;-58
2021/11/20 01:24:46;;;;;;;;;;;20.80;55.50;;;;;;3167012;28;19935;-57
2021/11/20 01:26:18;;;;;;;;;;;20.80;55.40;;;;;;3167546;28;19924;-57
2021/11/20 01:27:50;;;;;;;;;;;20.80;55.40;;;;;;3159448;28;19936;-58
2021/11/20 01:29:21;;;;;;;;;;;20.80;55.30;;;;;;3159848;28;19928;-58
2021/11/20 01:30:52;;;;;;;;;;;20.80;55.40;;;;;;3167796;28;19923;-57
2021/11/20 01:32:24;;;;;;;;;;;20.80;55.30;;;;;;3164403;28;19926;-57
2021/11/20 01:33:55;;;;;;;;;;;20.90;55.30;;;;;;3158939;28;19924;-57
2021/11/20 01:35:27;;;;;;;;;;;20.90;55.30;;;;;;3159105;28;19924;-57
2021/11/20 01:36:59;;;;;;;;;;;20.90;55.20;;;;;;3171844;28;19924;-58
2021/11/20 01:38:30;;;;;;;;;;;20.90;55.30;;;;;;3171671;28;20295;-58
2021/11/20 01:40:03;;;;;;;;;;;20.90;55.10;;;;;;3167478;28;19931;-57
2021/11/20 01:41:35;;;;;;;;;;;21.00;55.10;;;;;;3165046;28;19923;-58
2021/11/20 01:43:07;;;;;;;;;;;21.00;55.10;;;;;;3171562;28;19924;-57
2021/11/20 01:44:39;;;;;;;;;;;21.00;54.90;;;;;;3169535;27;19924;-58
2021/11/20 01:46:12;;;;;;;;;;;21.00;54.90;;;;;;3158474;28;19928;-56
2021/11/20 01:47:45;;;;;;;;;;;21.00;54.80;;;;;;3162443;28;19949;-58
2021/11/20 01:49:17;;;;;;;;;;;21.00;54.90;;;;;;3162919;28;20413;-57
2021/11/20 01:50:50;;;;;;;;;;;21.00;54.80;;;;;;3168426;28;19927;-55
2021/11/20 01:52:27;;;;;;;;;;;21.10;54.90;;;;;;3160780;28;19924;-58
2021/11/20 01:54:05;;;;;;;;;;;21.00;54.90;;;;;;3164976;28;19985;-58
2021/11/20 01:55:39;;;;;;;;;;;21.10;54.70;;;;;;3159834;28;19920;-56
2021/11/20 01:57:11;;;;;;;;;;;21.10;54.60;;;;;;3160005;28;19928;-58
2021/11/20 01:58:44;;;;;;;;;;;21.10;54.60;;;;;;3164108;28;19926;-56
2021/11/20 02:00:17;;;;;;;;;;;21.10;54.60;;;;;;3170193;28;19958;-59
2021/11/20 02:01:50;;;;;;;;;;;21.10;54.50;;;;;;3172013;28;20461;-58
2021/11/20 02:03:23;;;;;;;;;;;21.10;54.50;;;;;;3161911;28;19970;-57
2021/11/20 02:04:55;;;;;;;;;;;21.10;54.70;;;;;;3159179;28;19924;-59
2021/11/20 02:06:28;;;;;;;;;;;21.10;54.60;;;;;;3159617;28;19923;-58
2021/11/20 02:08:01;;;;;;;;;;;21.10;54.60;;;;;;3165763;28;20376;-59
2021/11/20 02:09:34;;;;;;;;;;;21.10;54.70;;;;;;3166638;28;20026;-58
2021/11/20 02:11:08;;;;;;;;;;;21.10;54.60;;;;;;3172563;28;20387;-55
2021/11/20 02:12:41;;;;;;;;;;;21.10;54.60;;;;;;3163923;28;20434;-59
2021/11/20 02:14:13;;;;;;;;;;;21.10;54.60;;;;;;3170114;28;19931;-57
2021/11/20 02:15:45;;;;;;;;;;;21.10;54.50;;;;;;3159810;28;19924;-59
2021/11/20 02:17:18;;;;;;;;;;;21.10;54.50;;;;;;3159151;28;20563;-59
2021/11/20 02:18:50;;;;;;;;;;;21.10;54.50;;;;;;3162108;28;20329;-59
2021/11/20 02:20:23;;;;;;;;;;;21.10;54.40;;;;;;3170985;28;19924;-59
2021/11/20 02:21:56;;;;;;;;;;;21.10;54.40;;;;;;3170325;28;19931;-58
2021/11/20 02:23:27;;;;;;;;;;;21.20;54.40;;;;;;3164827;28;19924;-59
2021/11/20 02:24:58;;;;;;;;;;;21.20;54.40;;;;;;3158680;27;19936;-58
2021/11/20 02:26:30;;;;;;;;;;;21.20;54.30;;;;;;3164189;28;19931;-58
2021/11/20 02:28:03;;;;;;;;;;;21.20;54.40;;;;;;3171659;28;19974;-59
2021/11/20 02:29:43;;;;;;;;;;;21.10;54.50;;;;;;3165108;28;19923;-57
2021/11/20 02:31:17;;;;;;;;;;;21.10;54.50;;;;;;3165648;28;20276;-59
2021/11/20 02:32:49;;;;;;;;;;;21.10;54.30;;;;;;3171363;28;20022;-59
2021/11/20 02:34:21;;;;;;;;;;;21.20;54.30;;;;;;3164063;28;19924;-55
2021/11/20 02:35:53;;;;;;;;;;;21.20;54.40;;;;;;3170170;28;19923;-59
2021/11/20 02:37:24;;;;;;;;;;;21.20;54.30;;;;;;3170887;28;20341;-59
2021/11/20 02:38:57;;;;;;;;;;;21.20;54.40;;;;;;3161402;28;19931;-59
2021/11/20 02:40:29;;;;;;;;;;;21.10;54.40;;;;;;3158610;28;19928;-59
2021/11/20 02:42:01;;;;;;;;;;;21.20;54.40;;;;;;3163516;28;20564;-59
2021/11/20 02:43:33;;;;;;;;;;;21.20;54.40;;;;;;3160369;28;20288;-59
2021/11/20 02:45:10;;;;;;;;;;;21.10;54.30;;;;;;3167573;28;20048;-58
2021/11/20 02:46:44;;;;;;;;;;;21.10;54.20;;;;;;3170237;28;19928;-59
2021/11/20 02:48:16;;;;;;;;;;;21.20;54.20;;;;;;3159464;28;20334;-58
2021/11/20 02:49:47;;;;;;;;;;;21.20;54.20;;;;;;3159095;28;19924;-58
2021/11/20 02:51:20;;;;;;;;;;;21.10;54.20;;;;;;3159585;28;19924;-59
2021/11/20 02:52:50;;;;;;;;;;;21.20;54.30;;;;;;3171365;28;19932;-58
2021/11/20 02:54:22;;;;;;;;;;;21.20;54.10;;;;;;3157413;28;19930;-59
2021/11/20 02:55:54;;;;;;;;;;;21.20;54.30;;;;;;3159648;28;19931;-58
2021/11/20 02:57:26;;;;;;;;;;;21.20;54.30;;;;;;3168147;28;19931;-58
2021/11/20 02:58:57;;;;;;;;;;;21.20;54.30;;;;;;3167346;28;19936;-59
2021/11/20 03:00:29;;;;;;;;;;;21.20;54.40;;;;;;3169924;28;19977;-59
2021/11/20 03:02:02;;;;;;;;;;;21.10;54.20;;;;;;3171849;28;19927;-59
2021/11/20 03:03:34;;;;;;;;;;;21.20;54.30;;;;;;3170952;28;19934;-59
2021/11/20 03:05:06;;;;;;;;;;;21.20;54.30;;;;;;3164171;28;19983;-58
2021/11/20 03:06:37;;;;;;;;;;;21.20;54.30;;;;;;3159222;28;20369;-59
2021/11/20 03:08:09;;;;;;;;;;;21.20;54.30;;;;;;3159554;28;20430;-58
2021/11/20 03:09:40;;;;;;;;;;;21.20;54.10;;;;;;3159262;28;19935;-59
2021/11/20 03:11:13;;;;;;;;;;;21.20;54.30;;;;;;3162754;28;19924;-59
2021/11/20 03:12:45;;;;;;;;;;;21.20;54.30;;;;;;3160460;28;19924;-59
2021/11/20 03:14:16;;;;;;;;;;;21.10;54.20;;;;;;3162306;28;19931;-59
2021/11/20 03:15:47;;;;;;;;;;;21.20;54.20;;;;;;3159381;28;19920;-57
2021/11/20 03:17:19;;;;;;;;;;;21.20;54.10;;;;;;3158907;28;19928;-59
2021/11/20 03:18:51;;;;;;;;;;;21.20;54.20;;;;;;3159477;28;19928;-59
2021/11/20 03:20:22;;;;;;;;;;;21.20;54.30;;;;;;3158086;28;19946;-57
2021/11/20 03:21:55;;;;;;;;;;;21.20;54.30;;;;;;3158820;28;20252;-58
2021/11/20 03:23:27;;;;;;;;;;;21.10;54.80;;;;;;3158219;28;19950;-57
2021/11/20 03:24:58;;;;;;;;;;;21.10;54.20;;;;;;3157814;28;19939;-58
2021/11/20 03:26:30;;;;;;;;;;;21.20;54.20;;;;;;3167282;28;19923;-57
2021/11/20 03:28:01;;;;;;;;;;;21.20;54.20;;;;;;3171740;28;19932;-58
2021/11/20 03:29:33;;;;;;;;;;;21.10;54.20;;;;;;3166388;28;19924;-58
2021/11/20 03:31:05;;;;;;;;;;;21.20;54.20;;;;;;3161878;28;20333;-56
2021/11/20 03:32:37;;;;;;;;;;;21.20;54.10;;;;;;3170923;28;19931;-59
2021/11/20 03:34:09;;;;;;;;;;;21.20;54.10;;;;;;3169539;28;19924;-58
2021/11/20 03:35:41;;;;;;;;;;;21.20;54.00;;;;;;3162844;28;20314;-57
2021/11/20 03:37:13;;;;;;;;;;;21.20;54.00;;;;;;3171623;28;19997;-59
2021/11/20 03:38:45;;;;;;;;;;;21.20;53.90;;;;;;3170808;28;19924;-59
2021/11/20 03:40:17;;;;;;;;;;;21.20;54.00;;;;;;3170685;28;19935;-59
2021/11/20 03:41:48;;;;;;;;;;;21.20;54.00;;;;;;3160735;28;19931;-59
2021/11/20 03:43:20;;;;;;;;;;;21.20;54.00;;;;;;3157978;28;19924;-59
2021/11/20 03:44:51;;;;;;;;;;;21.20;54.00;;;;;;3163847;28;19932;-58
2021/11/20 03:46:23;;;;;;;;;;;21.20;54.00;;;;;;3157658;28;19924;-57
2021/11/20 03:47:56;;;;;;;;;;;21.20;54.10;;;;;;3158093;28;20287;-58
2021/11/20 03:49:27;;;;;;;;;;;21.20;54.00;;;;;;3164852;28;20566;-58
2021/11/20 03:50:59;;;;;;;;;;;21.20;54.00;;;;;;3171192;28;19924;-59
2021/11/20 03:52:30;;;;;;;;;;;21.20;53.90;;;;;;3170395;28;19984;-58
2021/11/20 03:54:02;;;;;;;;;;;21.10;54.00;;;;;;3161545;28;19981;-57
2021/11/20 03:55:34;;;;;;;;;;;21.10;54.00;;;;;;3170833;28;19965;-58
2021/11/20 03:57:06;;;;;;;;;;;21.10;54.00;;;;;;3170471;28;19924;-58
2021/11/20 03:58:38;;;;;;;;;;;21.10;54.00;;;;;;3170994;28;19924;-59
2021/11/20 04:00:10;;;;;;;;;;;21.10;54.00;;;;;;3169716;28;20307;-58
2021/11/20 04:01:42;;;;;;;;;;;21.10;53.80;;;;;;3165889;28;19928;-58
2021/11/20 04:03:20;;;;;;;;;;;21.10;53.80;;;;;;3163695;28;19927;-59
2021/11/20 04:04:52;;;;;;;;;;;21.10;53.80;;;;;;3170572;28;20299;-59
2021/11/20 04:06:23;;;;;;;;;;;21.10;53.80;;;;;;3169928;28;19931;-59
2021/11/20 04:07:55;;;;;;;;;;;21.10;53.80;;;;;;3170873;28;19924;-57
2021/11/20 04:09:26;;;;;;;;;;;21.10;53.90;;;;;;3165795;28;19956;-58
2021/11/20 04:10:57;;;;;;;;;;;21.10;53.70;;;;;;3170935;28;19925;-59
2021/11/20 04:12:28;;;;;;;;;;;21.10;53.80;;;;;;3164575;28;19927;-59
2021/11/20 04:14:00;;;;;;;;;;;21.20;53.70;;;;;;3158931;28;19966;-59
2021/11/20 04:15:31;;;;;;;;;;;21.10;53.70;;;;;;3162763;28;20878;-59
2021/11/20 04:17:03;;;;;;;;;;;21.10;53.80;;;;;;3164977;28;19969;-57
2021/11/20 04:18:38;;;;;;;;;;;21.10;53.80;;;;;;3157972;28;20376;-58
2021/11/20 04:20:10;;;;;;;;;;;21.10;53.90;;;;;;3157246;27;19947;-59
2021/11/20 04:21:42;;;;;;;;;;;21.10;53.90;;;;;;3157229;28;20012;-59
2021/11/20 04:23:13;;;;;;;;;;;21.10;53.90;;;;;;3157781;28;19990;-56
2021/11/20 04:24:45;;;;;;;;;;;21.10;53.90;;;;;;3165615;28;19947;-57
2021/11/20 04:26:17;;;;;;;;;;;21.10;53.90;;;;;;3169329;28;19923;-59
2021/11/20 04:27:48;;;;;;;;;;;21.10;53.80;;;;;;3168686;28;19924;-59
2021/11/20 04:29:20;;;;;;;;;;;21.10;53.80;;;;;;3166861;28;19946;-59
2021/11/20 04:30:51;;;;;;;;;;;21.10;53.90;;;;;;3169849;28;19928;-59
2021/11/20 04:32:23;;;;;;;;;;;21.10;53.80;;;;;;3162954;28;19928;-58
2021/11/20 04:33:56;;;;;;;;;;;21.10;53.80;;;;;;3160690;28;19931;-59
2021/11/20 04:35:28;;;;;;;;;;;21.10;54.00;;;;;;3169512;28;19924;-58
2021/11/20 04:36:59;;;;;;;;;;;21.10;53.80;;;;;;3170558;28;19924;-56
2021/11/20 04:38:31;;;;;;;;;;;21.10;53.80;;;;;;3170689;28;19982;-59
2021/11/20 04:40:03;;;;;;;;;;;21.20;53.80;;;;;;3170455;28;19928;-57
2021/11/20 04:41:34;;;;;;;;;;;21.10;53.70;;;;;;3159281;28;19978;-59
2021/11/20 04:43:05;;;;;;;;;;;21.10;53.70;;;;;;3162888;28;20292;-57
2021/11/20 04:44:36;;;;;;;;;;;21.10;53.70;;;;;;3161997;28;19920;-57
2021/11/20 04:46:08;;;;;;;;;;;21.20;53.70;;;;;;3164340;28;20415;-58
2021/11/20 04:47:40;;;;;;;;;;;21.10;53.60;;;;;;3160803;28;20277;-58
2021/11/20 04:49:13;;;;;;;;;;;21.20;53.60;;;;;;3160384;28;19924;-55
2021/11/20 04:50:44;;;;;;;;;;;21.20;53.60;;;;;;3168457;28;19924;-59
2021/11/20 04:52:16;;;;;;;;;;;21.20;53.60;;;;;;3166654;28;19934;-59
2021/11/20 04:53:48;;;;;;;;;;;21.20;53.60;;;;;;3159357;28;19931;-59
2021/11/20 04:55:19;;;;;;;;;;;21.20;53.50;;;;;;3160013;28;19938;-59
2021/11/20 04:56:51;;;;;;;;;;;21.30;53.40;;;;;;3167967;28;19928;-55
2021/11/20 04:58:22;;;;;;;;;;;21.30;53.10;;;;;;3157915;28;19972;-58
2021/11/20 04:59:54;;;;;;;;;;;21.40;53.10;;;;;;3158042;28;19970;-59
2021/11/20 05:01:26;;;;;;;;;;;21.40;52.90;;;;;;3169673;28;19928;-58
2021/11/20 05:02:57;;;;;;;;;;;21.40;52.90;;;;;;3170240;28;20333;-59
2021/11/20 05:04:31;;;;;;;;;;;21.50;52.90;;;;;;3171338;28;19935;-59
2021/11/20 05:06:03;;;;;;;;;;;21.50;52.80;;;;;;3170932;28;19931;-59
2021/11/20 05:07:34;;;;;;;;;;;21.60;52.70;;;;;;3172484;28;19931;-59
2021/11/20 05:09:06;;;;;;;;;;;21.60;52.60;;;;;;3164450;28;20375;-57
2021/11/20 05:10:37;;;;;;;;;;;21.60;52.60;;;;;;3170514;28;19930;-59
2021/11/20 05:12:09;;;;;;;;;;;21.70;52.60;;;;;;3165723;28;19930;-58
2021/11/20 05:13:41;;;;;;;;;;;21.70;52.50;;;;;;3172225;28;19924;-58
2021/11/20 05:15:12;;;;;;;;;;;21.80;52.40;;;;;;3170467;28;19973;-58
2021/11/20 05:16:44;;;;;;;;;;;21.80;52.20;;;;;;3170764;28;19931;-58
2021/11/20 05:18:15;;;;;;;;;;;21.90;52.10;;;;;;3166615;28;20281;-58
2021/11/20 05:19:49;;;;;;;;;;;21.90;52.10;;;;;;3161074;28;20003;-58
2021/11/20 05:21:21;;;;;;;;;;;21.90;52.10;;;;;;3165845;28;19938;-57
2021/11/20 05:22:52;;;;;;;;;;;22.00;52.20;;;;;;3159917;28;19932;-59
2021/11/20 05:24:24;;;;;;;;;;;22.00;52.10;;;;;;3163163;28;19973;-57
2021/11/20 05:25:55;;;;;;;;;;;22.00;52.00;;;;;;3162777;28;20423;-59
2021/11/20 05:27:26;;;;;;;;;;;22.00;51.80;;;;;;3160045;28;19920;-58
2021/11/20 05:29:04;;;;;;;;;;;22.10;51.80;;;;;;3159052;28;20404;-59
2021/11/20 05:30:36;;;;;;;;;;;22.10;51.90;;;;;;3159321;28;19988;-59
2021/11/20 05:32:08;;;;;;;;;;;22.10;51.90;;;;;;3160306;28;19924;-58
2021/11/20 05:33:41;;;;;;;;;;;22.10;51.80;;;;;;3165725;28;19950;-58
2021/11/20 05:35:14;;;;;;;;;;;22.10;51.70;;;;;;3170566;28;19927;-58
2021/11/20 05:36:46;;;;;;;;;;;22.20;51.60;;;;;;3172631;28;19935;-59
2021/11/20 05:38:18;;;;;;;;;;;22.20;51.50;;;;;;3172988;28;19931;-59
2021/11/20 05:39:48;;;;;;;;;;;22.30;51.30;;;;;;3171150;28;20001;-57
2021/11/20 05:41:20;;;;;;;;;;;22.30;51.40;;;;;;3170695;28;19924;-59
2021/11/20 05:42:52;;;;;;;;;;;22.30;51.50;;;;;;3167257;28;19990;-58
2021/11/20 05:44:24;;;;;;;;;;;22.30;51.40;;;;;;3163211;28;19957;-59
2021/11/20 05:45:57;;;;;;;;;;;22.30;51.30;;;;;;3163021;28;20388;-59
2021/11/20 05:47:29;;;;;;;;;;;22.40;51.40;;;;;;3172525;28;20379;-58
2021/11/20 05:48:59;;;;;;;;;;;22.40;52.00;;;;;;3171664;28;19924;-59
2021/11/20 05:50:32;;;;;;;;;;;22.40;51.90;;;;;;3172686;28;19926;-59
2021/11/20 05:52:05;;;;;;;;;;;22.40;51.30;;;;;;3160012;28;19924;-59
2021/11/20 05:53:36;;;;;;;;;;;22.40;51.20;;;;;;3159243;28;19928;-59
2021/11/20 05:55:08;;;;;;;;;;;22.40;51.10;;;;;;3163273;28;20388;-57
2021/11/20 05:56:40;;;;;;;;;;;22.40;51.00;;;;;;3163468;28;20383;-57
2021/11/20 05:58:11;;;;;;;;;;;22.50;51.10;;;;;;3159968;28;19925;-58
2021/11/20 05:59:43;;;;;;;;;;;22.50;51.20;;;;;;3161861;28;19932;-58
2021/11/20 06:01:15;;;;;;;;;;;22.50;51.10;;;;;;3171265;28;19924;-58
2021/11/20 06:02:47;;;;;;;;;;;22.50;51.00;;;;;;3163558;28;20014;-59
2021/11/20 06:04:18;;;;;;;;;;;22.50;51.00;;;;;;3165422;28;20380;-59
2021/11/20 06:05:51;;;;;;;;;;;22.50;51.00;;;;;;3158930;28;19924;-57
2021/11/20 06:07:23;;;;;;;;;;;22.50;51.10;;;;;;3160020;28;19934;-58
2021/11/20 06:08:55;;;;;;;;;;;22.50;51.20;;;;;;3171263;28;19930;-58
2021/11/20 06:10:26;;;;;;;;;;;22.50;51.30;;;;;;3171515;28;19927;-57
2021/11/20 06:11:58;;;;;;;;;;;22.50;51.20;;;;;;3165691;28;19931;-58
2021/11/20 06:13:30;;;;;;;;;;;22.50;51.20;;;;;;3159075;28;20399;-57
2021/11/20 06:15:01;;;;;;;;;;;22.40;51.40;;;;;;3169176;28;19932;-59
2021/11/20 06:16:33;;;;;;;;;;;22.40;51.50;;;;;;3162032;28;19928;-59
2021/11/20 06:18:05;;;;;;;;;;;22.40;51.60;;;;;;3158799;28;20362;-58
2021/11/20 06:19:36;;;;;;;;;;;22.40;51.70;;;;;;3159976;28;19928;-59
2021/11/20 06:21:09;;;;;;;;;;;22.40;51.80;;;;;;3163121;28;19932;-58
2021/11/20 06:22:41;;;;;;;;;;;22.40;51.70;;;;;;3165512;28;19928;-59
2021/11/20 06:24:12;;;;;;;;;;;22.40;51.60;;;;;;3168739;28;19945;-59
2021/11/20 06:25:44;;;;;;;;;;;22.40;51.70;;;;;;3171484;28;19927;-59
2021/11/20 06:27:15;;;;;;;;;;;22.40;51.70;;;;;;3172014;28;19924;-59
2021/11/20 06:28:47;;;;;;;;;;;22.30;51.70;;;;;;3159768;28;19924;-56
2021/11/20 06:30:19;;;;;;;;;;;22.40;51.70;;;;;;3161240;28;19924;-59
2021/11/20 06:31:51;;;;;;;;;;;22.40;51.70;;;;;;3159236;28;19928;-59
2021/11/20 06:33:22;;;;;;;;;;;22.40;51.90;;;;;;3156457;28;19932;-58
2021/11/20 06:34:55;;;;;;;;;;;22.40;51.90;;;;;;3161978;28;19928;-59
2021/11/20 06:36:28;;;;;;;;;;;22.40;51.90;;;;;;3159721;28;19924;-59
2021/11/20 06:37:59;;;;;;;;;;;22.40;51.90;;;;;;3166022;28;19928;-59
2021/11/20 06:39:30;;;;;;;;;;;22.40;51.80;;;;;;3163036;27;19924;-59
2021/11/20 06:41:03;;;;;;;;;;;22.40;51.80;;;;;;3162519;28;19928;-56
2021/11/20 06:42:35;;;;;;;;;;;22.40;51.70;;;;;;3160732;28;19975;-57
2021/11/20 06:44:06;;;;;;;;;;;22.40;51.70;;;;;;3170659;28;20343;-59
2021/11/20 06:45:38;;;;;;;;;;;22.50;51.50;;;;;;3170633;28;19931;-59
2021/11/20 06:47:10;;;;;;;;;;;22.50;51.50;;;;;;3172159;28;19935;-59
2021/11/20 06:48:41;;;;;;;;;;;22.40;51.40;;;;;;3170061;28;19930;-59
2021/11/20 06:50:14;;;;;;;;;;;22.40;51.50;;;;;;3164279;28;19928;-59
2021/11/20 06:51:47;;;;;;;;;;;22.40;51.50;;;;;;3159640;28;20461;-59
2021/11/20 06:53:18;;;;;;;;;;;22.40;51.40;;;;;;3167032;28;20392;-59
2021/11/20 06:54:50;;;;;;;;;;;22.40;51.30;;;;;;3160672;27;19925;-61
2021/11/20 06:56:27;;;;;;;;;;;22.40;51.30;;;;;;3157917;28;19924;-58
2021/11/20 06:58:09;;;;;;;;;;;22.40;51.30;;;;;;3159568;28;19924;-59
2021/11/20 07:01:30;;;;;;;;;;;22.40;51.20;;;;;;3161324;28;19994;-57
2021/11/20 07:03:01;;;;;;;;;;;22.40;51.20;;;;;;3162152;28;19931;-55
2021/11/20 07:04:33;;;;;;;;;;;22.40;51.30;;;;;;3163388;28;20300;-59
2021/11/20 07:06:05;;;;;;;;;;;22.40;51.30;;;;;;3167494;28;19980;-59
2021/11/20 07:07:38;;;;;;;;;;;22.40;51.30;;;;;;3171030;28;19924;-59
2021/11/20 07:09:10;;;;;;;;;;;22.40;51.30;;;;;;3158813;28;19931;-58
2021/11/20 07:10:42;;;;;;;;;;;22.50;51.20;;;;;;3163056;28;20215;-59
2021/11/20 07:12:14;;;;;;;;;;;22.50;51.10;;;;;;3162754;28;19928;-58
2021/11/20 07:13:45;;;;;;;;;;;22.50;51.10;;;;;;3158801;28;19924;-59
2021/11/20 07:15:17;;;;;;;;;;;22.50;51.00;;;;;;3157400;28;19924;-59
2021/11/20 07:16:49;;;;;;;;;;;22.50;51.00;;;;;;3233352;22;19923;-55
2021/11/20 07:18:20;;;;;;;;;;;22.50;51.00;;;;;;3127402;28;19971;-58
2021/11/20 07:19:52;;;;;;;;;;;22.50;50.90;;;;;;3126625;28;19937;-57
2021/11/20 07:21:25;;;;;;;;;;;22.50;50.80;;;;;;3133464;28;19934;-51
2021/11/20 07:22:58;;;;;;;;;;;22.50;50.70;;;;;;3132307;28;20019;-56
2021/11/20 07:24:28;;;;;;;;;;;22.50;50.60;;;;;;3132425;28;20296;-53
2021/11/20 07:26:00;;;;;;;;;;;22.50;50.60;;;;;;3133079;28;19924;-56
2021/11/20 07:27:32;;;;;;;;;;;22.50;50.50;;;;;;3132048;28;20384;-51
2021/11/20 07:29:03;;;;;;;;;;;22.50;50.60;;;;;;3130634;28;19925;-52
2021/11/20 07:30:35;;;;;;;;;;;22.60;50.60;;;;;;3132868;28;19924;-56
2021/11/20 07:32:08;;;;;;;;;;;22.60;51.20;;;;;;3133001;28;19931;-55
2021/11/20 07:33:40;;;;;;;;;;;22.50;50.60;;;;;;3132837;28;19968;-53
2021/11/20 07:35:12;;;;;;;;;;;22.50;50.60;;;;;;3128309;28;20447;-57
2021/11/20 07:36:43;;;;;;;;;;;22.50;50.60;;;;;;3130063;28;19931;-55
2021/11/20 07:38:17;;;;;;;;;;;22.50;50.60;;;;;;3131525;28;19925;-56
2021/11/20 07:39:48;;;;;;;;;;;22.60;50.60;;;;;;3132479;28;19932;-53
2021/11/20 07:41:20;;;;;;;;;;;22.60;50.70;;;;;;3131678;28;19925;-54
2021/11/20 07:42:51;;;;;;;;;;;22.60;50.70;;;;;;3129840;28;20031;-55
2021/11/20 07:44:23;;;;;;;;;;;22.60;50.70;;;;;;3128314;28;20300;-54
2021/11/20 07:45:55;;;;;;;;;;;22.50;50.80;;;;;;3129442;28;20633;-54
2021/11/20 07:47:27;;;;;;;;;;;22.50;50.90;;;;;;3133270;28;19983;-54
2021/11/20 07:48:59;;;;;;;;;;;22.50;51.00;;;;;;3131146;28;19932;-56
2021/11/20 07:50:31;;;;;;;;;;;22.50;51.00;;;;;;3133240;28;20011;-55
2021/11/20 07:52:02;;;;;;;;;;;22.50;50.90;;;;;;3130498;28;19925;-54
2021/11/20 07:53:35;;;;;;;;;;;22.60;50.90;;;;;;3131154;28;20258;-56
2021/11/20 07:55:07;;;;;;;;;;;22.60;50.70;;;;;;3138105;28;20422;-53
2021/11/20 07:56:41;;;;;;;;;;;22.50;50.70;;;;;;3132815;28;19924;-57
2021/11/20 07:58:13;;;;;;;;;;;22.60;50.70;;;;;;3132154;28;20011;-56
2021/11/20 07:59:44;;;;;;;;;;;22.50;50.70;;;;;;3127893;28;19932;-56
2021/11/20 08:01:16;;;;;;;;;;;22.50;50.60;;;;;;3129652;28;20365;-53
2021/11/20 08:02:47;;;;;;;;;;;22.50;50.60;;;;;;3121315;28;19947;-59
2021/11/20 08:04:19;;;;;;;;;;;22.50;50.70;;;;;;3129627;28;19936;-57
2021/11/20 08:05:51;;;;;;;;;;;22.60;50.70;;;;;;3133383;28;19929;-56
2021/11/20 08:07:23;;;;;;;;;;;22.70;51.20;;;;;;3130662;28;19928;-58
2021/11/20 08:08:55;;;;;;;;;;;22.70;50.80;;;;;;3131380;28;19936;-50
2021/11/20 08:10:28;;;;;;;;;;;22.70;51.20;;;;;;3133714;28;19924;-56
2021/11/20 08:12:00;;;;;;;;;;;22.70;51.40;;;;;;3132128;28;20278;-53
2021/11/20 08:13:32;;;;;;;;;;;22.90;51.30;;;;;;3130810;28;19937;-58
2021/11/20 08:15:04;;;;;;;;;;;22.90;51.20;;;;;;3137817;28;19925;-53
2021/11/20 08:16:37;;;;;;;;;;;22.90;51.20;;;;;;3132164;28;20359;-57
2021/11/20 08:18:09;;;;;;;;;;;23.00;51.30;;;;;;3132582;28;19932;-58
2021/11/20 08:19:41;;;;;;;;;;;23.10;51.20;;;;;;3132455;28;19929;-52
2021/11/20 08:21:12;;;;;;;;;;;23.20;51.20;;;;;;3132183;28;19925;-54
2021/11/20 08:22:44;;;;;;;;;;;23.20;51.20;;;;;;3133016;28;19932;-53
2021/11/20 08:24:17;;;;;;;;;;;23.10;51.30;;;;;;3137759;28;19937;-57
2021/11/20 08:25:48;;;;;;;;;;;23.10;51.40;;;;;;3139995;28;19924;-56
2021/11/20 08:27:20;;;;;;;;;;;23.10;51.50;;;;;;3133687;28;20377;-57
2021/11/20 08:28:52;;;;;;;;;;;23.20;51.70;;;;;;3133286;28;20679;-57
2021/11/20 08:30:24;;;;;;;;;;;23.20;51.70;;;;;;3131210;28;19925;-54
2021/11/20 08:31:56;;;;;;;;;;;23.20;51.80;;;;;;3132546;28;20016;-53
2021/11/20 08:33:27;;;;;;;;;;;23.20;51.80;;;;;;3132642;28;19924;-54
2021/11/20 08:34:59;;;;;;;;;;;23.20;51.90;;;;;;3137476;28;20296;-54
2021/11/20 08:36:30;;;;;;;;;;;23.20;52.10;;;;;;3130589;28;19936;-55
2021/11/20 08:38:03;;;;;;;;;;;23.00;52.10;;;;;;3131791;28;19991;-58
2021/11/20 08:39:36;;;;;;;;;;;23.00;52.40;;;;;;3134672;28;20373;-58
2021/11/20 08:41:08;;;;;;;;;;;22.90;53.30;;;;;;3137080;28;19925;-58
2021/11/20 08:42:40;;;;;;;;;;;22.80;53.30;;;;;;3134338;28;20372;-55
2021/11/20 08:44:12;;;;;;;;;;;22.80;53.60;;;;;;3130148;28;20003;-55
2021/11/20 08:45:44;;;;;;;;;;;22.80;53.50;;;;;;3131570;28;20297;-55
2021/11/20 08:47:16;;;;;;;;;;;22.80;53.90;;;;;;3131266;28;19979;-54
2021/11/20 08:48:47;;;;;;;;;;;22.80;54.10;;;;;;3130575;28;19979;-58
2021/11/20 08:50:18;;;;;;;;;;;22.80;54.00;;;;;;3131263;28;19925;-59
2021/11/20 08:51:52;;;;;;;;;;;22.80;54.20;;;;;;3134727;28;20069;-56
2021/11/20 08:53:23;;;;;;;;;;;22.80;54.30;;;;;;3131215;28;19939;-56
2021/11/20 08:54:57;;;;;;;;;;;22.80;54.20;;;;;;3132357;28;19932;-56
2021/11/20 08:56:28;;;;;;;;;;;22.80;54.70;;;;;;3133029;28;19971;-53